SABE/AEP METAR and TAF weather

Enter ICAO airport designator
Station Type Date Time Source
SABE METAR 2019/08/24 08:00 UTC NOAA

SABE 240800Z 02004KT CAVOK 13/08 Q1023 NOSIG


Station Type Date Time Source
SABE Decoded METAR 2019/08/24 08:00 UTC NOAA

Station name not available
Aug 24, 2019 - 04:00 AM EDT / 2019.08.24 0800 UTC
Wind: from the NNE (020 degrees) at 5 MPH (4 KT):0
Visibility: greater than 7 mile(s):0
Temperature: 55 F (13 C)
Dew Point: 46 F (8 C)
Relative Humidity: 71%
Pressure (altimeter): 30.21 in. Hg (1023 hPa)
ob: SABE 240800Z 02004KT CAVOK 13/08 Q1023 NOSIG
cycle: 8

Station Type Date Time Source
SABE TAF 2019/08/24 06:42 UTC NOAA

TAF SABE 240500Z 2406/2506 03010KT CAVOK TX16/2418Z TN12/2410Z
BECMG 2418/2421 07010KT

Example: see airport list